Arnesen, Minnesota
Current Conditions -  °F | °C
As of 5:14 AM on Monday 22 Dec 2014 (Local Time) from KRRT Reporting Station
Haze Haze  
Wind Chill: -3°   Ceiling: 200
Heat Index:   Visibility: 1.5mi
Dew Point: -2°   Wind: 10mph
Humidity: 81%   Direction: 90°E
Pressure: 29.61"   Gusts: NA
Location:  48.6345°N, 95.1786°W
Report Text: KRRT 221114Z AUTO 09009KT 1 1/2SM BR OVC002 01/M02 A2961 RMK AO2
Loading
Personal Weather Stations






























Interactive Weather Map New forecast layout! Learn more

10-Day Weather Forecast

Advertisements
Track Severe Weather on mobile